Brunswick, Michigan
Current Conditions -  °F | °C
As of 7:54 PM on Saturday 22 Nov 2014 (Local Time) from KFFX Reporting Station
Haze Haze  
Wind Chill: 37°   Ceiling: 800
Heat Index: 42°   Visibility: 4mi
Dew Point: 41°   Wind: 8mph
Humidity: 97%   Direction: 230°SW
Pressure: 29.84"   Gusts: NA
Location:  43.452°N, 86.1285°W
Report Text: KFFX 230054Z AUTO 23007KT 4SM BR OVC008 06/05 A2984 RMK AO2 T00560052
Loading
Personal Weather Stations






























Interactive Weather Map New forecast layout! Learn more

10-Day Weather Forecast

Advertisements
Track Severe Weather on mobile